createdAt,value
2023-03-14T00:03:20.301Z,11.50
2023-03-14T00:08:22.526Z,11.60
2023-03-14T00:13:24.507Z,11.60
2023-03-14T00:18:26.220Z,11.60
2023-03-14T00:23:29.553Z,11.70
2023-03-14T00:28:31.671Z,11.70
2023-03-14T00:33:33.517Z,11.90
2023-03-14T00:38:35.661Z,12.00
2023-03-14T00:43:37.469Z,12.10
2023-03-14T00:48:39.234Z,12.10
2023-03-14T00:53:41.009Z,12.10
2023-03-14T00:58:42.785Z,12.00
2023-03-14T01:03:44.649Z,11.90
2023-03-14T01:08:46.632Z,11.80
2023-03-14T01:13:48.763Z,11.80
2023-03-14T01:18:50.610Z,11.70
2023-03-14T01:23:53.394Z,11.80
2023-03-14T01:28:56.109Z,11.80
2023-03-14T01:33:58.007Z,11.70
2023-03-14T01:38:59.699Z,11.70
2023-03-14T01:44:01.486Z,11.50
2023-03-14T01:49:25.442Z,11.20
2023-03-14T01:54:37.155Z,10.80
2023-03-14T01:59:41.556Z,10.70
2023-03-14T02:04:44.035Z,10.60
2023-03-14T02:09:46.231Z,10.60
2023-03-14T02:14:49.283Z,10.70
2023-03-14T02:20:09.852Z,10.70
2023-03-14T02:25:55.092Z,10.80
2023-03-14T02:30:56.932Z,11.00
2023-03-14T02:36:05.476Z,11.10
2023-03-14T02:41:07.559Z,11.20
2023-03-14T02:46:13.972Z,11.30
2023-03-14T02:51:16.505Z,11.30
2023-03-14T02:56:18.300Z,11.30
2023-03-14T03:01:20.213Z,11.30
2023-03-14T03:06:22.036Z,11.30
2023-03-14T03:11:23.822Z,11.30
2023-03-14T03:16:25.631Z,11.30
2023-03-14T03:21:27.654Z,11.30
2023-03-14T03:26:29.357Z,11.30
2023-03-14T03:31:31.095Z,11.30
2023-03-14T03:36:32.827Z,11.40
2023-03-14T03:41:34.582Z,11.40
2023-03-14T03:46:36.306Z,11.40
2023-03-14T03:51:38.061Z,11.40
2023-03-14T03:56:39.758Z,11.40
2023-03-14T04:01:41.658Z,11.40
2023-03-14T04:06:43.560Z,11.30
2023-03-14T04:11:45.301Z,11.30
2023-03-14T04:16:47.017Z,11.40
2023-03-14T04:21:48.716Z,11.30
2023-03-14T04:26:50.514Z,11.40
2023-03-14T04:37:07.906Z,11.40
2023-03-14T04:42:09.581Z,11.40
2023-03-14T04:47:11.252Z,11.40
2023-03-14T04:52:12.963Z,11.40
2023-03-14T04:57:14.708Z,11.40
2023-03-14T05:02:16.438Z,11.30
2023-03-14T05:07:18.179Z,11.30
2023-03-14T05:12:21.000Z,11.30
2023-03-14T05:17:22.838Z,11.30
2023-03-14T05:22:24.617Z,11.20
2023-03-14T05:27:26.454Z,11.20
2023-03-14T05:32:28.277Z,11.30
2023-03-14T05:37:30.003Z,11.40
2023-03-14T05:42:31.758Z,11.40
2023-03-14T05:47:33.490Z,11.40
2023-03-14T05:52:35.171Z,11.50
2023-03-14T05:57:36.904Z,11.50
2023-03-14T06:02:38.572Z,11.50
2023-03-14T06:07:40.371Z,11.40
2023-03-14T06:12:42.128Z,11.50
2023-03-14T06:17:43.853Z,11.50
2023-03-14T06:22:45.629Z,11.50
2023-03-14T06:27:47.408Z,11.60
2023-03-14T06:32:49.167Z,11.60
2023-03-14T06:37:51.042Z,11.60
2023-03-14T06:42:52.803Z,11.70
2023-03-14T06:47:54.515Z,11.70
2023-03-14T06:52:56.372Z,11.80
2023-03-14T06:57:58.095Z,12.00
2023-03-14T07:02:59.929Z,12.10
2023-03-14T07:08:01.735Z,12.20
2023-03-14T07:13:03.577Z,12.30
2023-03-14T07:18:05.304Z,12.40
2023-03-14T07:23:07.472Z,12.40
2023-03-14T07:28:09.317Z,12.60
2023-03-14T07:33:11.611Z,12.60
2023-03-14T07:38:13.372Z,12.60
2023-03-14T07:43:15.129Z,12.60
2023-03-14T07:48:16.818Z,12.60
2023-03-14T07:53:19.524Z,12.50
2023-03-14T07:58:25.132Z,12.50
2023-03-14T08:03:26.834Z,12.30
2023-03-14T08:08:28.703Z,12.10
2023-03-14T08:13:30.438Z,12.00
2023-03-14T08:18:32.226Z,12.00
2023-03-14T08:23:33.901Z,12.00
2023-03-14T08:28:35.820Z,11.90
2023-03-14T08:33:37.574Z,11.80
2023-03-14T08:38:39.487Z,11.70
2023-03-14T08:43:41.381Z,11.70
2023-03-14T08:48:43.127Z,11.70
2023-03-14T08:53:44.956Z,11.60
2023-03-14T08:58:46.695Z,11.70
2023-03-14T09:03:49.267Z,11.70
2023-03-14T09:08:51.082Z,11.80
2023-03-14T09:13:52.743Z,11.90
2023-03-14T09:18:55.488Z,11.80
2023-03-14T09:23:57.231Z,11.80
2023-03-14T09:28:59.119Z,11.80
2023-03-14T09:34:00.862Z,11.90
2023-03-14T09:39:02.573Z,11.90
2023-03-14T09:44:32.050Z,11.80
2023-03-14T09:49:37.867Z,11.80
2023-03-14T09:54:49.322Z,11.80
2023-03-14T09:59:53.177Z,11.70
2023-03-14T10:04:55.548Z,11.50
2023-03-14T10:09:57.833Z,11.50
2023-03-14T10:15:04.881Z,11.30
2023-03-14T10:20:07.000Z,11.20
2023-03-14T10:25:29.424Z,11.20
2023-03-14T10:30:46.796Z,11.20
2023-03-14T10:36:15.225Z,11.20
2023-03-14T10:41:26.307Z,11.20
2023-03-14T10:46:32.460Z,11.20
2023-03-14T10:51:34.521Z,11.00
2023-03-14T10:56:38.072Z,11.00
2023-03-14T11:01:52.131Z,10.90
2023-03-14T11:07:08.698Z,10.90
2023-03-14T11:12:32.038Z,11.00
2023-03-14T11:17:50.093Z,10.90
2023-03-14T11:23:17.015Z,10.90
2023-03-14T11:28:30.347Z,10.70
2023-03-14T11:33:41.448Z,10.60
2023-03-14T11:38:55.928Z,10.40
2023-03-14T11:44:00.992Z,9.60
2023-03-14T11:49:35.432Z,9.20
2023-03-14T11:54:48.914Z,8.90
2023-03-14T12:00:00.613Z,8.80
2023-03-14T12:05:28.617Z,9.00
2023-03-14T12:10:33.272Z,9.00
2023-03-14T12:15:40.300Z,9.00
2023-03-14T12:20:51.427Z,9.10
2023-03-14T12:26:12.507Z,9.40
2023-03-14T12:31:29.749Z,9.50
2023-03-14T12:36:56.452Z,10.00
2023-03-14T12:42:10.023Z,10.40
2023-03-14T12:47:20.617Z,11.10
2023-03-14T12:52:43.395Z,11.80
2023-03-14T12:58:15.932Z,11.90
2023-03-14T13:03:26.163Z,11.50
2023-03-14T13:08:58.166Z,11.00
2023-03-14T13:14:00.491Z,10.80
2023-03-14T13:19:10.835Z,10.30
2023-03-14T13:24:28.612Z,10.10
2023-03-14T13:29:32.530Z,10.10
2023-03-14T13:34:35.605Z,10.10
2023-03-14T13:39:41.036Z,10.00
2023-03-14T13:44:42.814Z,10.00
2023-03-14T13:49:45.291Z,10.00
2023-03-14T13:54:47.036Z,10.00
2023-03-14T14:00:08.172Z,10.20
2023-03-14T14:05:12.634Z,10.20
2023-03-14T14:10:15.422Z,10.00
2023-03-14T14:15:28.075Z,9.90
2023-03-14T14:20:42.525Z,10.10
2023-03-14T14:25:45.229Z,10.20
2023-03-14T14:30:47.033Z,10.20
2023-03-14T14:36:00.504Z,10.10
2023-03-14T14:41:03.813Z,10.10
2023-03-14T14:46:09.048Z,10.20
2023-03-14T14:51:10.913Z,10.90
2023-03-14T14:56:23.425Z,11.30
2023-03-14T15:01:31.264Z,11.10
2023-03-14T15:06:33.192Z,10.80
2023-03-14T15:11:34.943Z,10.80
2023-03-14T15:16:37.005Z,11.50
2023-03-14T15:21:38.889Z,11.60
2023-03-14T15:26:40.899Z,11.60
2023-03-14T15:31:44.874Z,11.80
2023-03-14T15:36:46.729Z,11.50
2023-03-14T15:41:48.547Z,11.30
2023-03-14T15:46:50.271Z,11.30
2023-03-14T15:51:52.045Z,11.60
2023-03-14T15:56:53.910Z,11.30
2023-03-14T16:01:55.920Z,10.80
2023-03-14T16:06:57.613Z,10.60
2023-03-14T16:11:59.477Z,10.60
2023-03-14T16:17:01.344Z,10.50
2023-03-14T16:22:04.276Z,10.30
2023-03-14T16:27:08.177Z,10.10
2023-03-14T16:32:10.524Z,10.20
2023-03-14T16:37:12.423Z,9.90
2023-03-14T16:42:14.252Z,9.50
2023-03-14T16:47:15.994Z,9.70
2023-03-14T16:52:17.682Z,9.60
2023-03-14T16:57:19.382Z,9.60
2023-03-14T17:02:21.176Z,9.40
2023-03-14T17:07:22.838Z,9.20
2023-03-14T17:12:24.507Z,9.20
2023-03-14T17:17:26.194Z,9.40
2023-03-14T17:22:31.709Z,9.40
2023-03-14T17:27:36.157Z,9.30
2023-03-14T17:32:37.969Z,9.30
2023-03-14T17:37:39.783Z,9.20
2023-03-14T17:42:41.554Z,9.10
2023-03-14T17:47:43.364Z,9.10
2023-03-14T17:52:45.150Z,9.10
2023-03-14T17:57:47.143Z,9.00
2023-03-14T18:02:49.255Z,9.00
2023-03-14T18:07:51.143Z,9.00
2023-03-14T18:12:52.912Z,9.10
2023-03-14T18:17:54.704Z,9.10
2023-03-14T18:22:56.859Z,8.80
2023-03-14T18:27:58.977Z,8.80
2023-03-14T18:33:01.248Z,8.60
2023-03-14T18:38:03.234Z,8.50
2023-03-14T18:43:05.212Z,8.40
2023-03-14T18:48:07.111Z,8.20
2023-03-14T18:53:09.041Z,8.10
2023-03-14T18:58:11.262Z,7.90
2023-03-14T19:03:13.456Z,7.70
2023-03-14T19:08:15.348Z,7.70
2023-03-14T19:13:17.898Z,7.60
2023-03-14T19:18:19.670Z,7.60
2023-03-14T19:23:24.679Z,7.60
2023-03-14T19:28:26.405Z,7.60
2023-03-14T19:33:29.304Z,7.60
2023-03-14T19:38:31.048Z,7.60
2023-03-14T19:43:32.813Z,7.60
2023-03-14T19:48:34.598Z,7.60
2023-03-14T19:53:36.696Z,7.70
2023-03-14T19:58:39.973Z,7.70
2023-03-14T20:03:41.790Z,7.80
2023-03-14T20:08:45.078Z,7.80
2023-03-14T20:13:47.314Z,7.90
2023-03-14T20:18:49.113Z,7.90
2023-03-14T20:23:51.450Z,8.00
2023-03-14T20:28:53.171Z,8.10
2023-03-14T20:33:55.047Z,7.70
2023-03-14T20:38:56.943Z,7.30
2023-03-14T20:43:58.862Z,7.20
2023-03-14T20:49:02.696Z,7.00
2023-03-14T20:54:04.874Z,7.10
2023-03-14T20:59:06.742Z,6.90
2023-03-14T21:04:08.501Z,6.90
2023-03-14T21:09:10.354Z,7.00
2023-03-14T21:14:12.181Z,7.00
2023-03-14T21:19:14.146Z,7.00
2023-03-14T21:24:16.410Z,7.00
2023-03-14T21:34:25.093Z,6.90
2023-03-14T21:39:27.028Z,6.40
2023-03-14T21:44:28.751Z,5.80
2023-03-14T21:49:37.932Z,5.90
2023-03-14T21:54:42.822Z,6.00
2023-03-14T21:59:46.781Z,6.00
2023-03-14T22:04:48.509Z,6.20
2023-03-14T22:09:50.252Z,6.40
2023-03-14T22:14:52.007Z,6.40
2023-03-14T22:19:53.863Z,6.30
2023-03-14T22:24:55.674Z,6.20
2023-03-14T22:29:57.469Z,6.00
2023-03-14T22:34:59.268Z,6.00
2023-03-14T22:40:01.044Z,6.10
2023-03-14T22:45:02.892Z,6.20
2023-03-14T22:50:04.890Z,6.30
2023-03-14T22:55:07.090Z,6.40
2023-03-14T23:00:12.103Z,6.50
2023-03-14T23:05:14.237Z,6.50
2023-03-14T23:10:16.421Z,6.50
2023-03-14T23:15:18.191Z,6.60
2023-03-14T23:20:20.172Z,6.60
2023-03-14T23:25:22.022Z,6.60
2023-03-14T23:30:23.901Z,6.60
2023-03-14T23:35:25.610Z,6.70
2023-03-14T23:40:27.364Z,6.60
2023-03-14T23:45:29.125Z,6.60
2023-03-14T23:50:30.855Z,6.60
2023-03-14T23:55:32.556Z,6.50
